createdAt,value
2022-10-11T00:02:50.723Z,11.89
2022-10-11T00:05:58.320Z,11.88
2022-10-11T00:09:04.358Z,12.05
2022-10-11T00:12:10.205Z,11.81
2022-10-11T00:15:18.974Z,11.67
2022-10-11T00:18:25.501Z,11.55
2022-10-11T00:21:33.286Z,11.67
2022-10-11T00:24:39.461Z,11.39
2022-10-11T00:27:46.374Z,11.55
2022-10-11T00:30:52.235Z,11.72
2022-10-11T00:33:58.751Z,11.65
2022-10-11T00:37:06.318Z,11.63
2022-10-11T00:40:17.576Z,11.53
2022-10-11T00:43:27.297Z,11.17
2022-10-11T00:46:33.758Z,11.28
2022-10-11T00:49:43.860Z,11.49
2022-10-11T00:52:56.859Z,11.16
2022-10-11T00:56:08.918Z,11.12
2022-10-11T00:59:23.115Z,10.38
2022-10-11T01:02:30.401Z,10.66
2022-10-11T01:05:39.958Z,11.06
2022-10-11T01:08:47.683Z,11.05
2022-10-11T01:11:57.482Z,10.89
2022-10-11T01:15:17.367Z,10.75
2022-10-11T01:18:31.949Z,10.68
2022-10-11T01:21:44.055Z,11.12
2022-10-11T01:25:11.644Z,10.84
2022-10-11T01:28:31.117Z,10.42
2022-10-11T01:31:43.834Z,10.11
2022-10-11T01:34:58.792Z,10.46
2022-10-11T01:38:14.467Z,10.91
2022-10-11T01:41:25.389Z,11.07
2022-10-11T01:44:34.493Z,11.19
2022-10-11T01:47:42.636Z,10.62
2022-10-11T01:50:51.536Z,10.45
2022-10-11T01:54:08.670Z,10.46
2022-10-11T01:57:42.487Z,10.48
2022-10-11T02:00:58.160Z,10.65
2022-10-11T02:04:15.900Z,10.83
2022-10-11T02:07:27.492Z,11.05
2022-10-11T02:10:37.703Z,11.29
2022-10-11T02:13:49.872Z,11.30
2022-10-11T02:17:01.460Z,11.10
2022-10-11T02:20:14.444Z,11.04
2022-10-11T02:23:29.351Z,10.72
2022-10-11T02:26:36.483Z,10.70
2022-10-11T02:29:46.452Z,10.88
2022-10-11T02:32:55.155Z,10.98
2022-10-11T02:36:09.936Z,11.00
2022-10-11T02:39:21.229Z,11.13
2022-10-11T02:42:30.996Z,11.17
2022-10-11T02:45:40.459Z,10.81
2022-10-11T02:48:46.776Z,10.68
2022-10-11T02:51:56.495Z,10.48
2022-10-11T02:55:02.772Z,10.32
2022-10-11T02:58:09.142Z,10.43
2022-10-11T03:01:15.889Z,10.52
2022-10-11T03:04:22.148Z,10.63
2022-10-11T03:07:29.800Z,10.57
2022-10-11T03:10:35.851Z,10.34
2022-10-11T03:13:42.096Z,10.27
2022-10-11T03:16:48.713Z,10.22
2022-10-11T03:19:55.232Z,10.37
2022-10-11T03:23:02.943Z,9.97
2022-10-11T03:26:09.310Z,10.12
2022-10-11T03:29:15.492Z,9.93
2022-10-11T03:32:21.821Z,10.04
2022-10-11T03:35:28.230Z,10.22
2022-10-11T03:38:36.049Z,10.07
2022-10-11T03:41:42.172Z,10.48
2022-10-11T03:44:50.292Z,10.49
2022-10-11T03:47:56.594Z,10.25
2022-10-11T03:51:03.015Z,9.99
2022-10-11T03:54:10.848Z,9.99
2022-10-11T03:57:16.709Z,9.82
2022-10-11T04:00:23.087Z,9.61
2022-10-11T04:03:29.427Z,9.99
2022-10-11T04:06:35.625Z,9.70
2022-10-11T04:09:43.342Z,9.99
2022-10-11T04:12:49.117Z,10.50
2022-10-11T04:15:55.358Z,10.58
2022-10-11T04:19:01.525Z,10.56
2022-10-11T04:22:08.075Z,10.54
2022-10-11T04:25:15.959Z,10.48
2022-10-11T04:28:22.274Z,10.04
2022-10-11T04:31:28.393Z,9.99
2022-10-11T04:34:34.903Z,10.09
2022-10-11T04:37:41.314Z,10.45
2022-10-11T04:40:48.973Z,10.57
2022-10-11T04:43:55.075Z,10.67
2022-10-11T04:47:01.439Z,10.72
2022-10-11T04:50:08.201Z,10.83
2022-10-11T04:53:14.223Z,10.96
2022-10-11T04:56:21.972Z,10.84
2022-10-11T04:59:28.363Z,10.66
2022-10-11T05:02:34.696Z,10.38
2022-10-11T05:05:40.781Z,10.77
2022-10-11T05:08:47.065Z,10.82
2022-10-11T05:11:54.553Z,10.65
2022-10-11T05:15:00.811Z,10.81
2022-10-11T05:18:07.199Z,10.64
2022-10-11T05:21:18.047Z,10.88
2022-10-11T05:24:24.392Z,11.12
2022-10-11T05:27:32.555Z,10.84
2022-10-11T05:30:38.861Z,10.87
2022-10-11T05:33:45.040Z,10.85
2022-10-11T05:36:51.362Z,10.63
2022-10-11T05:39:57.704Z,10.77
2022-10-11T05:43:05.268Z,11.07
2022-10-11T05:46:11.770Z,11.46
2022-10-11T05:49:17.910Z,11.65
2022-10-11T05:52:24.331Z,11.73
2022-10-11T05:55:30.562Z,11.81
2022-10-11T05:58:38.214Z,11.95
2022-10-11T06:01:44.563Z,11.88
2022-10-11T06:04:50.974Z,11.99
2022-10-11T06:07:58.288Z,11.95
2022-10-11T06:11:12.122Z,12.18
2022-10-11T06:14:20.404Z,12.11
2022-10-11T06:17:27.102Z,11.76
2022-10-11T06:20:33.264Z,11.30
2022-10-11T06:23:39.666Z,11.96
2022-10-11T06:26:45.828Z,11.75
2022-10-11T06:29:53.667Z,12.09
2022-10-11T06:33:04.470Z,11.97
2022-10-11T06:36:13.649Z,11.97
2022-10-11T06:39:20.331Z,12.40
2022-10-11T06:42:26.324Z,12.76
2022-10-11T06:45:33.999Z,12.92
2022-10-11T06:48:41.787Z,12.97
2022-10-11T06:51:48.134Z,12.69
2022-10-11T06:54:54.122Z,13.07
2022-10-11T06:58:00.250Z,12.94
2022-10-11T07:01:10.281Z,13.25
2022-10-11T07:04:16.295Z,13.14
2022-10-11T07:07:22.597Z,13.81
2022-10-11T07:10:29.152Z,13.67
2022-10-11T07:13:35.163Z,13.48
2022-10-11T07:16:42.660Z,13.80
2022-10-11T07:19:49.030Z,14.35
2022-10-11T07:22:54.944Z,14.02
2022-10-11T07:26:01.307Z,14.40
2022-10-11T07:29:08.300Z,14.57
2022-10-11T07:32:16.484Z,14.52
2022-10-11T07:35:22.685Z,14.37
2022-10-11T07:38:29.386Z,14.67
2022-10-11T07:41:38.172Z,14.81
2022-10-11T07:44:46.911Z,14.14
2022-10-11T07:47:56.291Z,14.64
2022-10-11T07:51:07.887Z,14.18
2022-10-11T07:54:14.009Z,14.24
2022-10-11T07:57:20.502Z,14.18
2022-10-11T08:00:27.155Z,14.81
2022-10-11T08:03:34.548Z,14.87
2022-10-11T08:06:40.795Z,14.73
2022-10-11T08:09:46.794Z,15.37
2022-10-11T08:12:53.910Z,15.14
2022-10-11T08:16:00.691Z,14.96
2022-10-11T08:19:08.551Z,15.57
2022-10-11T08:22:14.419Z,15.25
2022-10-11T08:25:20.701Z,15.26
2022-10-11T08:28:27.053Z,15.48
2022-10-11T08:31:34.000Z,15.62
2022-10-11T08:34:41.511Z,15.63
2022-10-11T08:37:48.067Z,16.28
2022-10-11T08:40:57.382Z,15.96
2022-10-11T08:44:14.156Z,15.85
2022-10-11T08:47:24.361Z,15.98
2022-10-11T08:50:32.407Z,16.13
2022-10-11T08:53:46.104Z,16.56
2022-10-11T08:56:52.982Z,16.84
2022-10-11T09:00:01.929Z,16.71
2022-10-11T09:03:23.068Z,15.99
2022-10-11T09:06:39.634Z,16.11
2022-10-11T09:10:00.401Z,15.69
2022-10-11T09:13:20.014Z,15.98
2022-10-11T09:16:37.660Z,15.98
2022-10-11T09:20:05.973Z,16.01
2022-10-11T09:23:24.722Z,16.78
2022-10-11T09:26:38.656Z,17.04
2022-10-11T09:29:59.376Z,16.40
2022-10-11T09:33:14.594Z,16.34
2022-10-11T09:36:26.684Z,16.58
2022-10-11T09:39:37.873Z,16.46
2022-10-11T09:42:44.175Z,16.38
2022-10-11T09:45:50.421Z,16.94
2022-10-11T09:48:58.683Z,16.74
2022-10-11T09:52:07.466Z,16.46
2022-10-11T09:55:31.543Z,15.95
2022-10-11T09:58:38.755Z,16.59
2022-10-11T10:01:44.877Z,17.28
2022-10-11T10:05:00.428Z,16.95
2022-10-11T10:08:23.899Z,16.85
2022-10-11T10:11:37.934Z,17.27
2022-10-11T10:14:44.186Z,17.38
2022-10-11T10:17:51.813Z,16.80
2022-10-11T10:21:00.743Z,17.05
2022-10-11T10:24:18.463Z,17.92
2022-10-11T10:27:28.123Z,17.74
2022-10-11T10:30:35.732Z,17.71
2022-10-11T10:33:42.415Z,17.83
2022-10-11T10:36:56.008Z,17.64
2022-10-11T10:40:07.847Z,18.23
2022-10-11T10:43:17.676Z,18.07
2022-10-11T10:46:46.557Z,17.10
2022-10-11T10:49:58.611Z,17.51
2022-10-11T10:53:18.322Z,18.20
2022-10-11T10:56:31.107Z,18.03
2022-10-11T10:59:55.507Z,17.59
2022-10-11T11:03:04.490Z,17.85
2022-10-11T11:06:21.813Z,17.64
2022-10-11T11:09:40.515Z,17.11
2022-10-11T11:12:51.631Z,17.55
2022-10-11T11:16:11.816Z,17.75
2022-10-11T11:19:34.692Z,17.40
2022-10-11T11:22:51.611Z,17.28
2022-10-11T11:26:07.972Z,16.66
2022-10-11T11:29:28.153Z,16.99
2022-10-11T11:32:50.366Z,17.43
2022-10-11T11:36:03.350Z,17.18
2022-10-11T11:39:17.552Z,16.85
2022-10-11T11:42:27.877Z,17.02
2022-10-11T11:45:45.180Z,17.05
2022-10-11T11:48:54.962Z,16.90
2022-10-11T11:52:01.917Z,17.06
2022-10-11T11:55:18.009Z,17.14
2022-10-11T11:58:43.860Z,17.14
2022-10-11T12:01:59.055Z,16.75
2022-10-11T12:05:09.301Z,17.15
2022-10-11T12:08:26.942Z,17.02
2022-10-11T12:11:54.491Z,17.13
2022-10-11T12:15:17.175Z,17.10
2022-10-11T12:18:23.753Z,17.14
2022-10-11T12:21:36.803Z,17.35
2022-10-11T12:24:55.381Z,17.34
2022-10-11T12:28:03.376Z,17.27
2022-10-11T12:31:24.152Z,17.44
2022-10-11T12:34:36.736Z,17.30
2022-10-11T12:37:52.220Z,17.22
2022-10-11T12:41:00.915Z,17.25
2022-10-11T12:44:21.571Z,17.05
2022-10-11T12:47:42.999Z,16.87
2022-10-11T12:51:03.046Z,17.12
2022-10-11T12:54:39.182Z,17.16
2022-10-11T12:58:22.991Z,16.67
2022-10-11T13:01:34.493Z,16.52
2022-10-11T13:04:40.814Z,16.80
2022-10-11T13:07:47.184Z,16.68
2022-10-11T13:10:57.226Z,16.58
2022-10-11T13:14:10.094Z,16.43
2022-10-11T13:17:20.788Z,16.31
2022-10-11T13:20:29.502Z,16.14
2022-10-11T13:23:39.387Z,16.14
2022-10-11T13:26:50.311Z,16.10
2022-10-11T13:30:02.285Z,16.02
2022-10-11T13:33:19.194Z,16.11
2022-10-11T13:36:28.006Z,15.76
2022-10-11T13:39:37.919Z,15.95
2022-10-11T13:42:48.543Z,15.89
2022-10-11T13:45:55.166Z,15.89
2022-10-11T13:49:02.858Z,15.77
2022-10-11T13:52:23.022Z,15.74
2022-10-11T13:55:34.901Z,15.97
2022-10-11T13:58:47.745Z,15.70
2022-10-11T14:01:59.716Z,15.78
2022-10-11T14:05:06.697Z,15.77
2022-10-11T14:08:23.852Z,15.60
2022-10-11T14:11:38.264Z,15.59
2022-10-11T14:14:49.053Z,15.64
2022-10-11T14:17:55.339Z,15.60
2022-10-11T14:21:34.044Z,15.58
2022-10-11T14:24:40.487Z,15.37
2022-10-11T14:27:47.007Z,15.51
2022-10-11T14:30:54.442Z,15.45
2022-10-11T14:34:00.819Z,15.52
2022-10-11T14:37:07.291Z,15.40
2022-10-11T14:40:16.948Z,15.29
2022-10-11T14:43:23.354Z,15.46
2022-10-11T14:46:31.111Z,15.22
2022-10-11T14:49:38.808Z,15.24
2022-10-11T14:52:45.519Z,15.32
2022-10-11T14:55:52.427Z,15.33
2022-10-11T14:58:58.882Z,15.53
2022-10-11T15:02:09.083Z,15.38
2022-10-11T15:05:15.437Z,15.44
2022-10-11T15:08:21.395Z,15.32
2022-10-11T15:11:27.919Z,15.27
2022-10-11T15:14:34.321Z,15.42
2022-10-11T15:17:41.946Z,15.29
2022-10-11T15:20:47.976Z,15.25
2022-10-11T15:23:56.163Z,15.32
2022-10-11T15:27:02.057Z,15.19
2022-10-11T15:30:14.393Z,15.15
2022-10-11T15:33:22.505Z,15.07
2022-10-11T15:36:29.702Z,15.02
2022-10-11T15:39:35.879Z,15.04
2022-10-11T15:42:42.625Z,14.97
2022-10-11T15:45:48.783Z,14.95
2022-10-11T15:48:56.426Z,14.83
2022-10-11T15:52:02.417Z,14.76
2022-10-11T15:55:09.283Z,14.72
2022-10-11T15:58:16.410Z,14.74
2022-10-11T16:01:22.730Z,14.71
2022-10-11T16:04:30.349Z,14.69
2022-10-11T16:07:36.582Z,14.57
2022-10-11T16:10:43.178Z,14.58
2022-10-11T16:13:50.401Z,14.53
2022-10-11T16:16:56.440Z,14.65
2022-10-11T16:20:06.847Z,14.70
2022-10-11T16:23:13.511Z,14.40
2022-10-11T16:26:19.826Z,14.44
2022-10-11T16:29:27.040Z,14.51
2022-10-11T16:32:34.549Z,14.41
2022-10-11T16:35:44.701Z,14.42
2022-10-11T16:38:50.904Z,14.33
2022-10-11T16:41:57.207Z,14.22
2022-10-11T16:45:03.969Z,14.34
2022-10-11T16:48:10.308Z,14.20
2022-10-11T16:51:17.710Z,14.35
2022-10-11T16:54:24.162Z,14.23
2022-10-11T16:57:30.791Z,14.23
2022-10-11T17:00:36.919Z,14.25
2022-10-11T17:03:43.084Z,14.28
2022-10-11T17:06:51.258Z,14.31
2022-10-11T17:09:58.155Z,14.19
2022-10-11T17:13:04.371Z,14.21
2022-10-11T17:16:11.265Z,14.28
2022-10-11T17:19:17.599Z,14.23
2022-10-11T17:22:25.735Z,14.19
2022-10-11T17:25:31.971Z,14.11
2022-10-11T17:28:39.066Z,14.11
2022-10-11T17:31:48.946Z,14.07
2022-10-11T17:34:57.782Z,14.08
2022-10-11T17:38:08.777Z,14.06
2022-10-11T17:41:16.445Z,14.09
2022-10-11T17:44:23.329Z,14.10
2022-10-11T17:47:30.341Z,14.05
2022-10-11T17:50:41.025Z,13.97
2022-10-11T17:53:51.005Z,14.08
2022-10-11T17:56:57.163Z,13.99
2022-10-11T18:00:06.579Z,14.06
2022-10-11T18:03:12.622Z,14.05
2022-10-11T18:06:18.843Z,14.17
2022-10-11T18:09:27.313Z,14.05
2022-10-11T18:12:33.465Z,13.97
2022-10-11T18:15:40.022Z,13.83
2022-10-11T18:18:46.392Z,13.82
2022-10-11T18:21:52.707Z,13.85
2022-10-11T18:25:00.474Z,13.96
2022-10-11T18:28:09.682Z,13.99
2022-10-11T18:31:18.571Z,13.91
2022-10-11T18:34:25.211Z,13.95
2022-10-11T18:37:31.780Z,14.01
2022-10-11T18:40:44.777Z,14.02
2022-10-11T18:43:56.504Z,13.95
2022-10-11T18:47:02.898Z,13.81
2022-10-11T18:50:13.111Z,13.88
2022-10-11T18:53:21.792Z,13.86
2022-10-11T18:56:36.003Z,13.68
2022-10-11T18:59:42.015Z,13.74
2022-10-11T19:02:48.934Z,13.75
2022-10-11T19:05:55.415Z,13.74
2022-10-11T19:09:03.081Z,13.65
2022-10-11T19:12:11.038Z,13.68
2022-10-11T19:15:17.752Z,13.69
2022-10-11T19:18:27.380Z,13.62
2022-10-11T19:21:34.408Z,13.38
2022-10-11T19:24:40.883Z,13.51
2022-10-11T19:27:48.768Z,13.55
2022-10-11T19:30:55.053Z,13.52
2022-10-11T19:34:01.128Z,13.62
2022-10-11T19:37:07.871Z,13.51
2022-10-11T19:40:14.620Z,13.49
2022-10-11T19:43:22.223Z,13.54
2022-10-11T19:46:50.524Z,13.57
2022-10-11T19:49:55.894Z,13.59
2022-10-11T19:53:02.388Z,13.58
2022-10-11T19:56:10.444Z,13.74
2022-10-11T19:59:18.332Z,13.64
2022-10-11T20:02:24.547Z,13.52
2022-10-11T20:05:30.848Z,13.71
2022-10-11T20:08:37.631Z,13.66
2022-10-11T20:11:43.884Z,13.70
2022-10-11T20:14:51.695Z,13.69
2022-10-11T20:17:57.969Z,13.73
2022-10-11T20:21:06.249Z,13.52
2022-10-11T20:24:12.621Z,13.56
2022-10-11T20:27:19.104Z,13.48
2022-10-11T20:30:45.219Z,13.56
2022-10-11T20:33:51.709Z,13.47
2022-10-11T20:36:57.999Z,13.48
2022-10-11T20:40:04.767Z,13.65
2022-10-11T20:43:10.882Z,13.57
2022-10-11T20:46:21.103Z,13.33
2022-10-11T20:49:27.227Z,13.50
2022-10-11T20:52:33.457Z,13.65
2022-10-11T20:55:40.106Z,13.59
2022-10-11T20:58:46.798Z,13.33
2022-10-11T21:01:54.387Z,13.56
2022-10-11T21:05:00.353Z,13.57
2022-10-11T21:08:07.079Z,13.62
2022-10-11T21:11:13.299Z,13.61
2022-10-11T21:14:19.361Z,13.63
2022-10-11T21:17:27.126Z,13.60
2022-10-11T21:20:33.093Z,13.61
2022-10-11T21:23:40.099Z,13.60
2022-10-11T21:26:46.189Z,13.52
2022-10-11T21:29:52.544Z,13.50
2022-10-11T21:33:00.494Z,13.62
2022-10-11T21:36:11.038Z,13.44
2022-10-11T21:39:17.107Z,13.52
2022-10-11T21:42:28.559Z,13.40
2022-10-11T21:45:38.192Z,13.43
2022-10-11T21:48:45.643Z,13.37
2022-10-11T21:51:51.920Z,13.35
2022-10-11T21:54:57.969Z,13.52
2022-10-11T21:58:04.257Z,13.37
2022-10-11T22:01:12.441Z,13.26
2022-10-11T22:04:20.293Z,13.36
2022-10-11T22:07:26.375Z,13.25
2022-10-11T22:10:34.654Z,13.36
2022-10-11T22:13:41.142Z,13.26
2022-10-11T22:16:47.292Z,13.37
2022-10-11T22:19:55.024Z,13.44
2022-10-11T22:23:01.975Z,13.40
2022-10-11T22:26:13.229Z,13.44
2022-10-11T22:29:19.491Z,13.40
2022-10-11T22:32:25.602Z,13.38
2022-10-11T22:35:37.563Z,13.35
2022-10-11T22:38:44.877Z,13.34
2022-10-11T22:41:50.796Z,13.20
2022-10-11T22:44:57.108Z,13.28
2022-10-11T22:48:04.070Z,13.13
2022-10-11T22:51:14.277Z,13.13
2022-10-11T22:54:20.570Z,13.11
2022-10-11T22:57:26.760Z,13.08
2022-10-11T23:00:33.128Z,12.94
2022-10-11T23:03:39.946Z,12.76
2022-10-11T23:06:47.994Z,12.62
2022-10-11T23:09:54.026Z,12.49
2022-10-11T23:13:00.628Z,12.76
2022-10-11T23:16:08.557Z,12.98
2022-10-11T23:19:15.372Z,13.19
2022-10-11T23:22:23.303Z,13.23
2022-10-11T23:25:29.643Z,13.30
2022-10-11T23:28:36.238Z,13.19
2022-10-11T23:31:42.507Z,13.00
2022-10-11T23:34:48.574Z,13.00
2022-10-11T23:37:56.290Z,13.09
2022-10-11T23:41:02.254Z,13.08
2022-10-11T23:44:08.510Z,12.44
2022-10-11T23:47:14.688Z,12.40
2022-10-11T23:50:20.943Z,12.47
2022-10-11T23:53:28.435Z,12.69
2022-10-11T23:56:34.475Z,12.92
2022-10-11T23:59:40.654Z,13.06
